Kampsville, Illinois
Current Conditions -  °F | °C
As of 2:15 AM on Thursday 29 Jan 2015 (Local Time) from KPPQ Reporting Station
Clear Clear  
Wind Chill: 52°   Ceiling: Unl
Heat Index: 52°   Visibility: 10mi
Dew Point: 39°   Wind: 15mph
Humidity: 61%   Direction: 240°WSW
Pressure: 29.74"   Gusts: 23mph
Location:  39.3°N, 90.61°W
Report Text: KPPQ 290815Z AUTO 24013G20KT 10SM CLR 11/04 A2974 RMK AO2 T01100037
Loading
Personal Weather Stations






























Interactive Weather Map New forecast layout! Learn more

10-Day Weather Forecast

Advertisements
Track Severe Weather on mobile